Terminal Aerodrome Forecast
Issued by NWS

Home | Current Version | Previous Version | Text Only | Print | Product List | Glossary On
Versions: 1 2 3 4 5 6 7 8 9 10 11 12 13 14 15 16 17 18 19 20
000
FTUS43 KMQT 311721
TAFIWD
TAF
KIWD 311721Z 3118/0118 34010G15KT 5SM -SHSN OVC015
     FM312100 35010G15KT 6SM -SHSN OVC015
     FM312300 02009KT 6SM -SHSN OVC015
     FM010500 06008KT 6SM -SHSN OVC020
     FM011100 06005KT P6SM BKN020
      AMD LTD TO CLD VIS AND WIND=

USA.gov is the U.S. government's official web portal to all federal, state and local government web resources and services.